sensor_id;sensor_type;location;lat;lon;timestamp;P1;durP1;ratioP1;P2;durP2;ratioP2
55409;SDS011;41279;43.546;16.426;2022-08-03T00:00:42;2.50;;;1.60;;
55409;SDS011;41279;43.546;16.426;2022-08-03T00:03:09;2.72;;;1.77;;
55409;SDS011;41279;43.546;16.426;2022-08-03T00:05:35;2.05;;;1.50;;
55409;SDS011;41279;43.546;16.426;2022-08-03T00:08:00;2.55;;;1.58;;
55409;SDS011;41279;43.546;16.426;2022-08-03T00:10:26;3.22;;;1.80;;
55409;SDS011;41279;43.546;16.426;2022-08-03T00:12:51;2.97;;;1.80;;
55409;SDS011;41279;43.546;16.426;2022-08-03T00:15:17;2.45;;;1.77;;
55409;SDS011;41279;43.546;16.426;2022-08-03T00:17:43;2.70;;;1.60;;
55409;SDS011;41279;43.546;16.426;2022-08-03T00:20:09;2.85;;;1.77;;
55409;SDS011;41279;43.546;16.426;2022-08-03T00:22:35;3.42;;;1.70;;
55409;SDS011;41279;43.546;16.426;2022-08-03T00:25:07;2.55;;;1.60;;
55409;SDS011;41279;43.546;16.426;2022-08-03T00:27:32;3.88;;;1.95;;
55409;SDS011;41279;43.546;16.426;2022-08-03T00:29:58;3.47;;;1.90;;
55409;SDS011;41279;43.546;16.426;2022-08-03T00:32:23;3.20;;;2.00;;
55409;SDS011;41279;43.546;16.426;2022-08-03T00:34:48;2.42;;;1.63;;
55409;SDS011;41279;43.546;16.426;2022-08-03T00:37:14;3.20;;;1.70;;
55409;SDS011;41279;43.546;16.426;2022-08-03T00:39:39;2.47;;;1.77;;
55409;SDS011;41279;43.546;16.426;2022-08-03T00:42:07;3.30;;;1.80;;
55409;SDS011;41279;43.546;16.426;2022-08-03T00:44:38;2.88;;;1.80;;
55409;SDS011;41279;43.546;16.426;2022-08-03T00:47:06;2.58;;;1.45;;
55409;SDS011;41279;43.546;16.426;2022-08-03T00:49:34;3.80;;;1.80;;
55409;SDS011;41279;43.546;16.426;2022-08-03T00:52:00;3.00;;;1.85;;
55409;SDS011;41279;43.546;16.426;2022-08-03T00:54:26;2.60;;;1.65;;
55409;SDS011;41279;43.546;16.426;2022-08-03T00:56:52;2.72;;;1.88;;
55409;SDS011;41279;43.546;16.426;2022-08-03T00:59:18;2.90;;;1.80;;
55409;SDS011;41279;43.546;16.426;2022-08-03T01:01:43;3.13;;;1.65;;
55409;SDS011;41279;43.546;16.426;2022-08-03T01:04:08;3.05;;;1.85;;
55409;SDS011;41279;43.546;16.426;2022-08-03T01:09:43;3.45;;;2.10;;
55409;SDS011;41279;43.546;16.426;2022-08-03T01:12:51;4.15;;;2.03;;
55409;SDS011;41279;43.546;16.426;2022-08-03T01:15:39;3.95;;;2.10;;
55409;SDS011;41279;43.546;16.426;2022-08-03T01:18:10;2.85;;;1.88;;
55409;SDS011;41279;43.546;16.426;2022-08-03T01:20:42;3.27;;;2.03;;
55409;SDS011;41279;43.546;16.426;2022-08-03T01:31:31;2.83;;;1.75;;
55409;SDS011;41279;43.546;16.426;2022-08-03T01:34:04;4.00;;;2.00;;
55409;SDS011;41279;43.546;16.426;2022-08-03T01:36:34;3.30;;;2.05;;
55409;SDS011;41279;43.546;16.426;2022-08-03T01:39:03;3.30;;;2.20;;
55409;SDS011;41279;43.546;16.426;2022-08-03T01:41:34;3.35;;;2.10;;
55409;SDS011;41279;43.546;16.426;2022-08-03T01:44:05;3.50;;;2.10;;
55409;SDS011;41279;43.546;16.426;2022-08-03T01:46:33;4.43;;;2.08;;
55409;SDS011;41279;43.546;16.426;2022-08-03T01:49:01;3.28;;;2.10;;
55409;SDS011;41279;43.546;16.426;2022-08-03T01:51:27;3.40;;;1.98;;
55409;SDS011;41279;43.546;16.426;2022-08-03T01:53:55;3.78;;;2.00;;
55409;SDS011;41279;43.546;16.426;2022-08-03T01:56:23;2.92;;;2.03;;
55409;SDS011;41279;43.546;16.426;2022-08-03T01:58:50;4.32;;;2.00;;
55409;SDS011;41279;43.546;16.426;2022-08-03T02:01:18;3.80;;;2.20;;
55409;SDS011;41279;43.546;16.426;2022-08-03T02:03:46;3.08;;;2.00;;
55409;SDS011;41279;43.546;16.426;2022-08-03T02:06:20;3.58;;;2.20;;
55409;SDS011;41279;43.546;16.426;2022-08-03T02:08:47;5.53;;;2.28;;
55409;SDS011;41279;43.546;16.426;2022-08-03T02:11:13;3.67;;;2.25;;
55409;SDS011;41279;43.546;16.426;2022-08-03T02:13:39;4.28;;;2.20;;
55409;SDS011;41279;43.546;16.426;2022-08-03T02:16:05;3.75;;;2.40;;
55409;SDS011;41279;43.546;16.426;2022-08-03T02:18:32;2.97;;;1.95;;
55409;SDS011;41279;43.546;16.426;2022-08-03T02:21:02;3.35;;;2.03;;
55409;SDS011;41279;43.546;16.426;2022-08-03T02:23:28;3.72;;;2.05;;
55409;SDS011;41279;43.546;16.426;2022-08-03T02:25:57;3.20;;;2.10;;
55409;SDS011;41279;43.546;16.426;2022-08-03T02:28:28;3.90;;;2.30;;
55409;SDS011;41279;43.546;16.426;2022-08-03T02:30:58;3.50;;;2.20;;
55409;SDS011;41279;43.546;16.426;2022-08-03T02:33:38;3.25;;;2.10;;
55409;SDS011;41279;43.546;16.426;2022-08-03T02:36:07;3.97;;;2.20;;
55409;SDS011;41279;43.546;16.426;2022-08-03T02:38:35;4.05;;;2.20;;
55409;SDS011;41279;43.546;16.426;2022-08-03T02:41:06;3.72;;;2.38;;
55409;SDS011;41279;43.546;16.426;2022-08-03T02:43:37;3.55;;;2.28;;
55409;SDS011;41279;43.546;16.426;2022-08-03T02:46:04;4.13;;;2.20;;
55409;SDS011;41279;43.546;16.426;2022-08-03T02:48:31;2.92;;;2.00;;
55409;SDS011;41279;43.546;16.426;2022-08-03T02:50:58;3.22;;;2.10;;
55409;SDS011;41279;43.546;16.426;2022-08-03T02:53:26;3.05;;;2.20;;
55409;SDS011;41279;43.546;16.426;2022-08-03T02:55:54;5.13;;;2.30;;
55409;SDS011;41279;43.546;16.426;2022-08-03T02:58:22;3.40;;;2.30;;
55409;SDS011;41279;43.546;16.426;2022-08-03T03:00:49;3.35;;;2.10;;
55409;SDS011;41279;43.546;16.426;2022-08-03T03:03:16;3.30;;;2.15;;
55409;SDS011;41279;43.546;16.426;2022-08-03T03:05:42;3.45;;;2.20;;
55409;SDS011;41279;43.546;16.426;2022-08-03T03:08:11;3.28;;;2.10;;
55409;SDS011;41279;43.546;16.426;2022-08-03T03:10:38;4.20;;;2.50;;
55409;SDS011;41279;43.546;16.426;2022-08-03T03:13:04;4.13;;;2.72;;
55409;SDS011;41279;43.546;16.426;2022-08-03T03:15:31;3.70;;;2.50;;
55409;SDS011;41279;43.546;16.426;2022-08-03T03:17:59;3.90;;;2.38;;
55409;SDS011;41279;43.546;16.426;2022-08-03T03:20:25;3.70;;;2.47;;
55409;SDS011;41279;43.546;16.426;2022-08-03T03:22:52;3.80;;;2.53;;
55409;SDS011;41279;43.546;16.426;2022-08-03T03:25:19;3.70;;;2.50;;
55409;SDS011;41279;43.546;16.426;2022-08-03T03:27:45;4.13;;;2.40;;
55409;SDS011;41279;43.546;16.426;2022-08-03T03:30:12;4.40;;;2.40;;
55409;SDS011;41279;43.546;16.426;2022-08-03T03:32:38;4.07;;;2.42;;
55409;SDS011;41279;43.546;16.426;2022-08-03T03:35:04;3.90;;;2.40;;
55409;SDS011;41279;43.546;16.426;2022-08-03T03:37:30;4.15;;;2.40;;
55409;SDS011;41279;43.546;16.426;2022-08-03T03:39:56;3.45;;;2.50;;
55409;SDS011;41279;43.546;16.426;2022-08-03T03:42:21;3.92;;;2.78;;
55409;SDS011;41279;43.546;16.426;2022-08-03T03:44:47;4.43;;;2.50;;
55409;SDS011;41279;43.546;16.426;2022-08-03T03:47:12;4.47;;;2.38;;
55409;SDS011;41279;43.546;16.426;2022-08-03T03:49:38;3.78;;;2.40;;
55409;SDS011;41279;43.546;16.426;2022-08-03T03:52:04;3.92;;;2.38;;
55409;SDS011;41279;43.546;16.426;2022-08-03T03:54:39;4.85;;;2.42;;
55409;SDS011;41279;43.546;16.426;2022-08-03T03:57:06;5.78;;;2.78;;
55409;SDS011;41279;43.546;16.426;2022-08-03T03:59:31;4.38;;;2.50;;
55409;SDS011;41279;43.546;16.426;2022-08-03T04:01:57;3.85;;;2.33;;
55409;SDS011;41279;43.546;16.426;2022-08-03T04:04:22;4.25;;;2.38;;
55409;SDS011;41279;43.546;16.426;2022-08-03T04:07:06;4.40;;;2.30;;
55409;SDS011;41279;43.546;16.426;2022-08-03T04:09:50;3.83;;;2.45;;
55409;SDS011;41279;43.546;16.426;2022-08-03T04:15:00;7.93;;;2.53;;
55409;SDS011;41279;43.546;16.426;2022-08-03T04:17:27;5.88;;;2.50;;
55409;SDS011;41279;43.546;16.426;2022-08-03T04:19:54;4.75;;;2.92;;
55409;SDS011;41279;43.546;16.426;2022-08-03T04:22:23;4.40;;;2.95;;
55409;SDS011;41279;43.546;16.426;2022-08-03T04:24:52;3.40;;;2.35;;
55409;SDS011;41279;43.546;16.426;2022-08-03T04:27:23;3.83;;;2.60;;
55409;SDS011;41279;43.546;16.426;2022-08-03T04:29:52;5.07;;;2.55;;
55409;SDS011;41279;43.546;16.426;2022-08-03T04:32:19;3.53;;;2.13;;
55409;SDS011;41279;43.546;16.426;2022-08-03T04:34:49;5.90;;;2.80;;
55409;SDS011;41279;43.546;16.426;2022-08-03T04:37:20;3.97;;;2.47;;
55409;SDS011;41279;43.546;16.426;2022-08-03T04:39:54;5.07;;;2.58;;
55409;SDS011;41279;43.546;16.426;2022-08-03T04:42:22;3.85;;;2.28;;
55409;SDS011;41279;43.546;16.426;2022-08-03T04:44:49;3.70;;;2.30;;
55409;SDS011;41279;43.546;16.426;2022-08-03T04:47:16;5.20;;;2.63;;
55409;SDS011;41279;43.546;16.426;2022-08-03T04:49:42;4.07;;;2.75;;
55409;SDS011;41279;43.546;16.426;2022-08-03T04:52:08;4.22;;;2.50;;
55409;SDS011;41279;43.546;16.426;2022-08-03T04:54:43;3.88;;;2.40;;
55409;SDS011;41279;43.546;16.426;2022-08-03T04:57:10;4.70;;;2.30;;
55409;SDS011;41279;43.546;16.426;2022-08-03T04:59:36;6.90;;;2.88;;
55409;SDS011;41279;43.546;16.426;2022-08-03T05:02:02;5.07;;;2.80;;
55409;SDS011;41279;43.546;16.426;2022-08-03T05:04:27;10.65;;;2.92;;
55409;SDS011;41279;43.546;16.426;2022-08-03T05:06:53;16.00;;;3.25;;
55409;SDS011;41279;43.546;16.426;2022-08-03T05:09:18;4.75;;;2.90;;
55409;SDS011;41279;43.546;16.426;2022-08-03T05:11:44;5.32;;;2.72;;
55409;SDS011;41279;43.546;16.426;2022-08-03T05:14:09;5.20;;;2.80;;
55409;SDS011;41279;43.546;16.426;2022-08-03T05:16:35;4.95;;;2.35;;
55409;SDS011;41279;43.546;16.426;2022-08-03T05:19:00;6.47;;;2.80;;
55409;SDS011;41279;43.546;16.426;2022-08-03T05:21:26;5.55;;;2.75;;
55409;SDS011;41279;43.546;16.426;2022-08-03T05:23:51;6.15;;;2.50;;
55409;SDS011;41279;43.546;16.426;2022-08-03T05:26:16;9.30;;;2.72;;
55409;SDS011;41279;43.546;16.426;2022-08-03T05:28:42;6.88;;;2.90;;
55409;SDS011;41279;43.546;16.426;2022-08-03T05:31:07;7.68;;;2.72;;
55409;SDS011;41279;43.546;16.426;2022-08-03T05:33:32;7.95;;;2.42;;
55409;SDS011;41279;43.546;16.426;2022-08-03T05:35:58;6.65;;;2.45;;
55409;SDS011;41279;43.546;16.426;2022-08-03T05:38:24;5.90;;;2.25;;
55409;SDS011;41279;43.546;16.426;2022-08-03T05:40:49;5.13;;;2.42;;
55409;SDS011;41279;43.546;16.426;2022-08-03T05:43:15;6.45;;;2.30;;
55409;SDS011;41279;43.546;16.426;2022-08-03T05:45:47;4.90;;;2.20;;
55409;SDS011;41279;43.546;16.426;2022-08-03T05:48:12;8.27;;;2.88;;
55409;SDS011;41279;43.546;16.426;2022-08-03T05:50:37;5.88;;;2.60;;
55409;SDS011;41279;43.546;16.426;2022-08-03T05:53:03;5.35;;;2.80;;
55409;SDS011;41279;43.546;16.426;2022-08-03T05:55:28;5.65;;;2.55;;
55409;SDS011;41279;43.546;16.426;2022-08-03T05:57:54;7.18;;;3.17;;
55409;SDS011;41279;43.546;16.426;2022-08-03T06:00:19;6.72;;;2.78;;
55409;SDS011;41279;43.546;16.426;2022-08-03T06:02:44;5.70;;;2.40;;
55409;SDS011;41279;43.546;16.426;2022-08-03T06:05:10;14.18;;;2.83;;
55409;SDS011;41279;43.546;16.426;2022-08-03T06:07:35;4.97;;;2.55;;
55409;SDS011;41279;43.546;16.426;2022-08-03T06:10:01;6.90;;;2.50;;
55409;SDS011;41279;43.546;16.426;2022-08-03T06:12:28;5.60;;;2.25;;
55409;SDS011;41279;43.546;16.426;2022-08-03T06:14:53;5.15;;;2.50;;
55409;SDS011;41279;43.546;16.426;2022-08-03T06:17:19;3.72;;;2.30;;
55409;SDS011;41279;43.546;16.426;2022-08-03T06:19:44;4.22;;;2.33;;
55409;SDS011;41279;43.546;16.426;2022-08-03T06:22:09;3.40;;;1.80;;
55409;SDS011;41279;43.546;16.426;2022-08-03T06:24:35;3.53;;;2.40;;
55409;SDS011;41279;43.546;16.426;2022-08-03T06:27:00;3.90;;;2.40;;
55409;SDS011;41279;43.546;16.426;2022-08-03T06:29:25;3.83;;;2.17;;
55409;SDS011;41279;43.546;16.426;2022-08-03T06:31:51;5.25;;;2.25;;
55409;SDS011;41279;43.546;16.426;2022-08-03T06:34:16;4.30;;;2.10;;
55409;SDS011;41279;43.546;16.426;2022-08-03T06:36:42;4.20;;;2.03;;
55409;SDS011;41279;43.546;16.426;2022-08-03T06:39:07;4.57;;;2.50;;
55409;SDS011;41279;43.546;16.426;2022-08-03T06:41:32;3.80;;;2.60;;
55409;SDS011;41279;43.546;16.426;2022-08-03T06:43:58;3.97;;;2.38;;
55409;SDS011;41279;43.546;16.426;2022-08-03T06:46:23;4.50;;;2.40;;
55409;SDS011;41279;43.546;16.426;2022-08-03T06:48:48;4.07;;;2.25;;
55409;SDS011;41279;43.546;16.426;2022-08-03T06:51:14;4.25;;;2.63;;
55409;SDS011;41279;43.546;16.426;2022-08-03T06:53:39;3.80;;;2.40;;
55409;SDS011;41279;43.546;16.426;2022-08-03T06:56:05;4.57;;;2.33;;
55409;SDS011;41279;43.546;16.426;2022-08-03T06:58:31;6.05;;;2.20;;
55409;SDS011;41279;43.546;16.426;2022-08-03T07:00:56;5.10;;;2.20;;
55409;SDS011;41279;43.546;16.426;2022-08-03T07:03:22;3.70;;;2.20;;
55409;SDS011;41279;43.546;16.426;2022-08-03T07:05:47;3.90;;;2.28;;
55409;SDS011;41279;43.546;16.426;2022-08-03T07:08:13;3.08;;;2.10;;
55409;SDS011;41279;43.546;16.426;2022-08-03T07:10:39;4.68;;;2.10;;
55409;SDS011;41279;43.546;16.426;2022-08-03T07:13:05;6.28;;;2.22;;
55409;SDS011;41279;43.546;16.426;2022-08-03T07:15:31;4.30;;;2.33;;
55409;SDS011;41279;43.546;16.426;2022-08-03T07:17:56;3.38;;;2.22;;
55409;SDS011;41279;43.546;16.426;2022-08-03T07:20:22;5.82;;;2.50;;
55409;SDS011;41279;43.546;16.426;2022-08-03T07:22:47;3.60;;;2.30;;
55409;SDS011;41279;43.546;16.426;2022-08-03T07:25:13;4.07;;;2.63;;
55409;SDS011;41279;43.546;16.426;2022-08-03T07:27:42;7.35;;;2.42;;
55409;SDS011;41279;43.546;16.426;2022-08-03T07:30:11;3.53;;;2.40;;
55409;SDS011;41279;43.546;16.426;2022-08-03T07:32:37;4.05;;;2.40;;
55409;SDS011;41279;43.546;16.426;2022-08-03T07:35:03;3.92;;;2.38;;
55409;SDS011;41279;43.546;16.426;2022-08-03T07:37:29;3.70;;;2.28;;
55409;SDS011;41279;43.546;16.426;2022-08-03T07:39:54;5.07;;;2.42;;
55409;SDS011;41279;43.546;16.426;2022-08-03T07:42:20;4.53;;;2.42;;
55409;SDS011;41279;43.546;16.426;2022-08-03T07:44:47;4.15;;;2.35;;
55409;SDS011;41279;43.546;16.426;2022-08-03T07:47:14;3.80;;;2.40;;
55409;SDS011;41279;43.546;16.426;2022-08-03T07:49:42;3.50;;;2.17;;
55409;SDS011;41279;43.546;16.426;2022-08-03T07:52:08;6.90;;;2.25;;
55409;SDS011;41279;43.546;16.426;2022-08-03T07:54:52;3.95;;;2.10;;
55409;SDS011;41279;43.546;16.426;2022-08-03T07:57:18;5.22;;;2.38;;
55409;SDS011;41279;43.546;16.426;2022-08-03T07:59:44;4.40;;;2.53;;
55409;SDS011;41279;43.546;16.426;2022-08-03T08:02:10;4.57;;;2.40;;
55409;SDS011;41279;43.546;16.426;2022-08-03T08:04:35;3.60;;;2.58;;
55409;SDS011;41279;43.546;16.426;2022-08-03T08:07:08;4.35;;;2.20;;
55409;SDS011;41279;43.546;16.426;2022-08-03T08:09:33;3.58;;;2.30;;
55409;SDS011;41279;43.546;16.426;2022-08-03T08:11:59;4.50;;;2.22;;
55409;SDS011;41279;43.546;16.426;2022-08-03T08:14:24;3.50;;;2.10;;
55409;SDS011;41279;43.546;16.426;2022-08-03T08:16:50;3.75;;;2.10;;
55409;SDS011;41279;43.546;16.426;2022-08-03T08:19:15;3.67;;;2.30;;
55409;SDS011;41279;43.546;16.426;2022-08-03T08:21:41;3.63;;;2.38;;
55409;SDS011;41279;43.546;16.426;2022-08-03T08:24:09;3.72;;;2.30;;
55409;SDS011;41279;43.546;16.426;2022-08-03T08:26:35;3.08;;;2.10;;
55409;SDS011;41279;43.546;16.426;2022-08-03T08:29:01;3.78;;;2.30;;
55409;SDS011;41279;43.546;16.426;2022-08-03T08:31:27;4.28;;;2.42;;
55409;SDS011;41279;43.546;16.426;2022-08-03T08:33:53;3.67;;;2.20;;
55409;SDS011;41279;43.546;16.426;2022-08-03T08:36:18;3.80;;;2.50;;
55409;SDS011;41279;43.546;16.426;2022-08-03T08:38:43;3.70;;;2.30;;
55409;SDS011;41279;43.546;16.426;2022-08-03T08:41:12;3.67;;;2.33;;
55409;SDS011;41279;43.546;16.426;2022-08-03T08:43:39;3.33;;;2.15;;
55409;SDS011;41279;43.546;16.426;2022-08-03T08:46:06;4.45;;;2.40;;
55409;SDS011;41279;43.546;16.426;2022-08-03T08:48:36;3.97;;;2.38;;
55409;SDS011;41279;43.546;16.426;2022-08-03T08:51:08;3.38;;;2.00;;
55409;SDS011;41279;43.546;16.426;2022-08-03T08:53:35;4.35;;;2.45;;
55409;SDS011;41279;43.546;16.426;2022-08-03T08:56:01;4.05;;;2.30;;
55409;SDS011;41279;43.546;16.426;2022-08-03T08:58:28;3.08;;;2.20;;
55409;SDS011;41279;43.546;16.426;2022-08-03T09:00:58;4.00;;;2.28;;
55409;SDS011;41279;43.546;16.426;2022-08-03T09:03:24;3.40;;;2.17;;
55409;SDS011;41279;43.546;16.426;2022-08-03T09:05:49;3.30;;;1.95;;
55409;SDS011;41279;43.546;16.426;2022-08-03T09:08:15;4.45;;;2.13;;
55409;SDS011;41279;43.546;16.426;2022-08-03T09:10:40;4.55;;;2.00;;
55409;SDS011;41279;43.546;16.426;2022-08-03T09:13:06;4.03;;;2.00;;
55409;SDS011;41279;43.546;16.426;2022-08-03T09:15:32;3.10;;;2.00;;
55409;SDS011;41279;43.546;16.426;2022-08-03T09:18:01;3.35;;;2.00;;
55409;SDS011;41279;43.546;16.426;2022-08-03T09:20:28;3.33;;;1.80;;
55409;SDS011;41279;43.546;16.426;2022-08-03T09:23:00;4.30;;;2.00;;
55409;SDS011;41279;43.546;16.426;2022-08-03T09:25:32;2.58;;;1.80;;
55409;SDS011;41279;43.546;16.426;2022-08-03T09:28:03;4.65;;;2.10;;
55409;SDS011;41279;43.546;16.426;2022-08-03T09:30:42;3.47;;;1.80;;
55409;SDS011;41279;43.546;16.426;2022-08-03T09:33:10;3.25;;;2.10;;
55409;SDS011;41279;43.546;16.426;2022-08-03T09:35:43;3.00;;;2.00;;
55409;SDS011;41279;43.546;16.426;2022-08-03T09:38:14;3.58;;;2.10;;
55409;SDS011;41279;43.546;16.426;2022-08-03T09:40:48;3.63;;;2.00;;
55409;SDS011;41279;43.546;16.426;2022-08-03T09:43:13;4.63;;;2.47;;
55409;SDS011;41279;43.546;16.426;2022-08-03T09:45:39;3.55;;;2.00;;
55409;SDS011;41279;43.546;16.426;2022-08-03T09:48:27;4.75;;;2.10;;
55409;SDS011;41279;43.546;16.426;2022-08-03T09:50:54;4.20;;;2.13;;
55409;SDS011;41279;43.546;16.426;2022-08-03T09:53:22;4.00;;;2.20;;
55409;SDS011;41279;43.546;16.426;2022-08-03T09:55:56;3.67;;;2.30;;
55409;SDS011;41279;43.546;16.426;2022-08-03T09:58:25;3.67;;;2.35;;
55409;SDS011;41279;43.546;16.426;2022-08-03T10:01:04;3.80;;;2.47;;
55409;SDS011;41279;43.546;16.426;2022-08-03T10:03:30;4.88;;;2.33;;
55409;SDS011;41279;43.546;16.426;2022-08-03T10:05:58;3.67;;;2.40;;
55409;SDS011;41279;43.546;16.426;2022-08-03T10:11:31;3.38;;;2.45;;
55409;SDS011;41279;43.546;16.426;2022-08-03T10:13:59;3.90;;;2.47;;
55409;SDS011;41279;43.546;16.426;2022-08-03T10:16:38;4.03;;;2.60;;
55409;SDS011;41279;43.546;16.426;2022-08-03T10:19:05;5.30;;;2.50;;
55409;SDS011;41279;43.546;16.426;2022-08-03T10:21:32;4.00;;;2.50;;
55409;SDS011;41279;43.546;16.426;2022-08-03T10:24:01;4.30;;;2.30;;
55409;SDS011;41279;43.546;16.426;2022-08-03T10:26:28;3.50;;;2.40;;
55409;SDS011;41279;43.546;16.426;2022-08-03T10:28:56;4.10;;;2.60;;
55409;SDS011;41279;43.546;16.426;2022-08-03T10:31:25;3.55;;;2.55;;
55409;SDS011;41279;43.546;16.426;2022-08-03T10:33:55;3.85;;;2.47;;
55409;SDS011;41279;43.546;16.426;2022-08-03T10:36:22;4.38;;;2.50;;
55409;SDS011;41279;43.546;16.426;2022-08-03T10:38:51;3.05;;;2.10;;
55409;SDS011;41279;43.546;16.426;2022-08-03T10:41:21;3.65;;;2.28;;
55409;SDS011;41279;43.546;16.426;2022-08-03T10:44:10;2.97;;;2.20;;
55409;SDS011;41279;43.546;16.426;2022-08-03T10:46:40;4.85;;;2.42;;
55409;SDS011;41279;43.546;16.426;2022-08-03T10:49:07;4.32;;;2.42;;
55409;SDS011;41279;43.546;16.426;2022-08-03T10:51:36;3.60;;;2.30;;
55409;SDS011;41279;43.546;16.426;2022-08-03T10:54:02;4.72;;;2.40;;
55409;SDS011;41279;43.546;16.426;2022-08-03T10:59:14;3.65;;;2.30;;
55409;SDS011;41279;43.546;16.426;2022-08-03T11:01:51;3.70;;;2.22;;
55409;SDS011;41279;43.546;16.426;2022-08-03T11:04:21;3.35;;;2.20;;
55409;SDS011;41279;43.546;16.426;2022-08-03T11:06:54;3.50;;;2.28;;
55409;SDS011;41279;43.546;16.426;2022-08-03T11:09:43;4.25;;;2.05;;
55409;SDS011;41279;43.546;16.426;2022-08-03T11:12:28;3.28;;;2.40;;
55409;SDS011;41279;43.546;16.426;2022-08-03T11:14:56;3.47;;;2.40;;
55409;SDS011;41279;43.546;16.426;2022-08-03T11:17:24;3.15;;;2.15;;
55409;SDS011;41279;43.546;16.426;2022-08-03T11:19:50;4.03;;;2.50;;
55409;SDS011;41279;43.546;16.426;2022-08-03T11:22:17;3.40;;;2.40;;
55409;SDS011;41279;43.546;16.426;2022-08-03T11:27:20;4.13;;;2.30;;
55409;SDS011;41279;43.546;16.426;2022-08-03T11:35:16;3.72;;;2.40;;
55409;SDS011;41279;43.546;16.426;2022-08-03T11:43:09;3.30;;;2.40;;
55409;SDS011;41279;43.546;16.426;2022-08-03T11:48:41;3.20;;;2.30;;
55409;SDS011;41279;43.546;16.426;2022-08-03T11:53:52;3.63;;;2.30;;
55409;SDS011;41279;43.546;16.426;2022-08-03T11:56:19;3.65;;;2.20;;
55409;SDS011;41279;43.546;16.426;2022-08-03T11:58:51;3.45;;;2.28;;
55409;SDS011;41279;43.546;16.426;2022-08-03T12:01:19;3.13;;;2.30;;
55409;SDS011;41279;43.546;16.426;2022-08-03T12:03:46;3.45;;;2.35;;
55409;SDS011;41279;43.546;16.426;2022-08-03T12:06:12;5.63;;;2.58;;
55409;SDS011;41279;43.546;16.426;2022-08-03T12:08:40;4.78;;;2.20;;
55409;SDS011;41279;43.546;16.426;2022-08-03T12:11:07;4.00;;;2.30;;
55409;SDS011;41279;43.546;16.426;2022-08-03T12:13:38;3.85;;;2.70;;
55409;SDS011;41279;43.546;16.426;2022-08-03T12:16:05;3.10;;;2.30;;
55409;SDS011;41279;43.546;16.426;2022-08-03T12:18:31;3.40;;;2.13;;
55409;SDS011;41279;43.546;16.426;2022-08-03T12:23:49;4.10;;;2.20;;
55409;SDS011;41279;43.546;16.426;2022-08-03T12:26:14;3.92;;;2.35;;
55409;SDS011;41279;43.546;16.426;2022-08-03T12:28:46;3.40;;;2.20;;
55409;SDS011;41279;43.546;16.426;2022-08-03T12:31:13;3.13;;;2.25;;
55409;SDS011;41279;43.546;16.426;2022-08-03T12:33:57;3.70;;;2.20;;
55409;SDS011;41279;43.546;16.426;2022-08-03T12:36:26;3.60;;;2.40;;
55409;SDS011;41279;43.546;16.426;2022-08-03T12:38:56;3.70;;;2.35;;
55409;SDS011;41279;43.546;16.426;2022-08-03T12:41:28;5.20;;;2.45;;
55409;SDS011;41279;43.546;16.426;2022-08-03T12:43:55;3.97;;;2.30;;
55409;SDS011;41279;43.546;16.426;2022-08-03T12:46:21;3.63;;;2.17;;
55409;SDS011;41279;43.546;16.426;2022-08-03T12:54:14;3.73;;;2.17;;
55409;SDS011;41279;43.546;16.426;2022-08-03T12:59:22;3.38;;;2.10;;
55409;SDS011;41279;43.546;16.426;2022-08-03T13:01:48;3.45;;;2.15;;
55409;SDS011;41279;43.546;16.426;2022-08-03T13:04:23;3.38;;;2.13;;
55409;SDS011;41279;43.546;16.426;2022-08-03T13:07:00;3.70;;;2.42;;
55409;SDS011;41279;43.546;16.426;2022-08-03T13:09:28;3.42;;;2.10;;
55409;SDS011;41279;43.546;16.426;2022-08-03T13:12:05;4.18;;;2.30;;
55409;SDS011;41279;43.546;16.426;2022-08-03T13:14:36;3.33;;;2.28;;
55409;SDS011;41279;43.546;16.426;2022-08-03T13:17:01;3.38;;;2.20;;
55409;SDS011;41279;43.546;16.426;2022-08-03T13:19:27;2.97;;;1.90;;
55409;SDS011;41279;43.546;16.426;2022-08-03T13:21:52;4.53;;;1.90;;
55409;SDS011;41279;43.546;16.426;2022-08-03T13:24:18;3.03;;;1.90;;
55409;SDS011;41279;43.546;16.426;2022-08-03T13:26:43;3.75;;;1.80;;
55409;SDS011;41279;43.546;16.426;2022-08-03T13:29:09;3.03;;;1.83;;
55409;SDS011;41279;43.546;16.426;2022-08-03T13:31:34;3.40;;;1.73;;
55409;SDS011;41279;43.546;16.426;2022-08-03T13:34:00;3.08;;;1.70;;
55409;SDS011;41279;43.546;16.426;2022-08-03T13:36:25;3.22;;;1.83;;
55409;SDS011;41279;43.546;16.426;2022-08-03T13:38:51;2.55;;;1.63;;
55409;SDS011;41279;43.546;16.426;2022-08-03T13:41:17;2.70;;;1.60;;
55409;SDS011;41279;43.546;16.426;2022-08-03T13:43:43;2.50;;;1.50;;
55409;SDS011;41279;43.546;16.426;2022-08-03T13:46:08;3.45;;;1.70;;
55409;SDS011;41279;43.546;16.426;2022-08-03T13:48:33;2.70;;;1.60;;
55409;SDS011;41279;43.546;16.426;2022-08-03T13:50:59;3.42;;;1.50;;
55409;SDS011;41279;43.546;16.426;2022-08-03T13:53:24;2.17;;;1.50;;
55409;SDS011;41279;43.546;16.426;2022-08-03T13:55:49;3.75;;;1.80;;
55409;SDS011;41279;43.546;16.426;2022-08-03T13:58:15;3.13;;;1.73;;
55409;SDS011;41279;43.546;16.426;2022-08-03T14:00:40;2.80;;;1.63;;
55409;SDS011;41279;43.546;16.426;2022-08-03T14:03:13;3.97;;;1.60;;
55409;SDS011;41279;43.546;16.426;2022-08-03T14:05:38;2.90;;;1.40;;
55409;SDS011;41279;43.546;16.426;2022-08-03T14:08:04;2.17;;;1.40;;
55409;SDS011;41279;43.546;16.426;2022-08-03T14:10:37;2.58;;;1.38;;
55409;SDS011;41279;43.546;16.426;2022-08-03T14:13:04;2.05;;;1.30;;
55409;SDS011;41279;43.546;16.426;2022-08-03T14:15:31;2.00;;;1.30;;
55409;SDS011;41279;43.546;16.426;2022-08-03T14:17:56;1.52;;;1.27;;
55409;SDS011;41279;43.546;16.426;2022-08-03T14:20:22;2.30;;;1.40;;
55409;SDS011;41279;43.546;16.426;2022-08-03T14:22:48;1.88;;;1.30;;
55409;SDS011;41279;43.546;16.426;2022-08-03T14:25:13;2.17;;;1.60;;
55409;SDS011;41279;43.546;16.426;2022-08-03T14:27:38;2.10;;;1.40;;
55409;SDS011;41279;43.546;16.426;2022-08-03T14:30:04;2.72;;;1.52;;
55409;SDS011;41279;43.546;16.426;2022-08-03T14:32:30;2.85;;;1.80;;
55409;SDS011;41279;43.546;16.426;2022-08-03T14:34:55;3.00;;;1.40;;
55409;SDS011;41279;43.546;16.426;2022-08-03T14:37:20;2.20;;;1.58;;
55409;SDS011;41279;43.546;16.426;2022-08-03T14:39:46;2.60;;;1.80;;
55409;SDS011;41279;43.546;16.426;2022-08-03T14:42:12;2.28;;;1.40;;
55409;SDS011;41279;43.546;16.426;2022-08-03T14:44:37;2.92;;;1.80;;
55409;SDS011;41279;43.546;16.426;2022-08-03T14:47:03;3.55;;;1.67;;
55409;SDS011;41279;43.546;16.426;2022-08-03T14:49:28;3.05;;;1.60;;
55409;SDS011;41279;43.546;16.426;2022-08-03T14:51:54;3.63;;;1.60;;
55409;SDS011;41279;43.546;16.426;2022-08-03T14:54:19;5.00;;;1.55;;
55409;SDS011;41279;43.546;16.426;2022-08-03T14:56:45;3.85;;;1.77;;
55409;SDS011;41279;43.546;16.426;2022-08-03T14:59:11;3.17;;;1.80;;
55409;SDS011;41279;43.546;16.426;2022-08-03T15:01:36;2.70;;;1.67;;
55409;SDS011;41279;43.546;16.426;2022-08-03T15:04:01;2.75;;;1.70;;
55409;SDS011;41279;43.546;16.426;2022-08-03T15:06:27;2.92;;;1.90;;
55409;SDS011;41279;43.546;16.426;2022-08-03T15:08:52;2.97;;;1.80;;
55409;SDS011;41279;43.546;16.426;2022-08-03T15:11:18;3.78;;;1.98;;
55409;SDS011;41279;43.546;16.426;2022-08-03T15:13:43;3.20;;;1.65;;
55409;SDS011;41279;43.546;16.426;2022-08-03T15:16:09;2.85;;;1.85;;
55409;SDS011;41279;43.546;16.426;2022-08-03T15:18:34;3.00;;;1.77;;
55409;SDS011;41279;43.546;16.426;2022-08-03T15:20:59;2.40;;;1.65;;
55409;SDS011;41279;43.546;16.426;2022-08-03T15:23:26;3.97;;;1.70;;
55409;SDS011;41279;43.546;16.426;2022-08-03T15:25:51;2.72;;;1.67;;